createdAt,value
2023-04-22T00:01:43.726Z,99.90
2023-04-22T00:08:43.374Z,99.90
2023-04-22T00:11:11.124Z,99.90
2023-04-22T00:13:38.112Z,99.90
2023-04-22T00:16:07.108Z,99.90
2023-04-22T00:18:37.479Z,99.90
2023-04-22T00:21:06.066Z,99.90
2023-04-22T00:23:32.996Z,99.90
2023-04-22T00:26:01.405Z,99.90
2023-04-22T00:28:28.419Z,99.90
2023-04-22T00:30:55.399Z,99.90
2023-04-22T00:33:23.157Z,99.90
2023-04-22T00:35:50.722Z,99.90
2023-04-22T00:38:17.663Z,99.90
2023-04-22T00:40:44.524Z,99.90
2023-04-22T00:43:14.259Z,99.90
2023-04-22T00:45:42.542Z,99.90
2023-04-22T00:48:11.909Z,99.90
2023-04-22T00:50:38.952Z,99.90
2023-04-22T00:53:05.892Z,99.90
2023-04-22T00:55:33.382Z,99.90
2023-04-22T00:58:03.481Z,99.90
2023-04-22T01:00:30.456Z,99.90
2023-04-22T01:02:58.117Z,99.90
2023-04-22T01:05:25.933Z,99.90
2023-04-22T01:07:52.885Z,99.90
2023-04-22T01:10:20.402Z,99.90
2023-04-22T01:12:47.359Z,99.90
2023-04-22T01:15:14.562Z,99.90
2023-04-22T01:17:41.753Z,99.90
2023-04-22T01:20:12.134Z,99.90
2023-04-22T01:22:45.576Z,99.90
2023-04-22T01:25:12.990Z,99.90
2023-04-22T01:27:40.983Z,99.90
2023-04-22T01:30:10.197Z,99.90
2023-04-22T01:32:40.929Z,99.90
2023-04-22T01:35:09.693Z,99.90
2023-04-22T01:37:37.256Z,99.90
2023-04-22T01:40:05.904Z,99.90
2023-04-22T01:42:33.430Z,99.90
2023-04-22T01:45:00.604Z,99.90
2023-04-22T01:47:27.675Z,99.90
2023-04-22T01:49:54.643Z,99.90
2023-04-22T01:52:21.916Z,99.90
2023-04-22T01:54:49.087Z,99.90
2023-04-22T01:57:16.504Z,99.90
2023-04-22T01:59:43.898Z,99.90
2023-04-22T02:02:10.938Z,99.90
2023-04-22T02:04:38.134Z,99.90
2023-04-22T02:07:05.912Z,99.90
2023-04-22T02:09:36.101Z,99.90
2023-04-22T02:12:03.078Z,99.90
2023-04-22T02:14:30.013Z,99.90
2023-04-22T02:17:03.259Z,99.90
2023-04-22T02:19:30.555Z,99.90
2023-04-22T02:21:58.273Z,99.90
2023-04-22T02:24:25.474Z,99.90
2023-04-22T02:26:52.415Z,99.90
2023-04-22T02:29:19.813Z,99.90
2023-04-22T02:31:47.669Z,99.90
2023-04-22T02:34:15.127Z,99.90
2023-04-22T02:36:42.016Z,99.90
2023-04-22T02:39:08.992Z,99.90
2023-04-22T02:41:36.032Z,99.90
2023-04-22T02:44:03.740Z,99.90
2023-04-22T02:46:31.161Z,99.90
2023-04-22T02:48:58.203Z,99.90
2023-04-22T02:51:25.140Z,99.90
2023-04-22T02:53:52.919Z,99.90
2023-04-22T02:56:21.309Z,99.90
2023-04-22T02:58:48.393Z,99.90
2023-04-22T03:01:15.425Z,99.90
2023-04-22T03:03:44.216Z,99.90
2023-04-22T03:06:16.042Z,99.90
2023-04-22T03:08:43.081Z,99.90
2023-04-22T03:11:10.796Z,99.90
2023-04-22T03:13:37.784Z,99.90
2023-04-22T03:16:04.921Z,99.90
2023-04-22T03:18:33.027Z,99.90
2023-04-22T03:21:00.958Z,99.90
2023-04-22T03:23:28.074Z,99.90
2023-04-22T03:25:55.912Z,99.90
2023-04-22T03:28:23.259Z,99.90
2023-04-22T03:30:50.914Z,99.90
2023-04-22T03:33:18.630Z,99.90
2023-04-22T03:36:00.542Z,99.90
2023-04-22T03:38:27.604Z,99.90
2023-04-22T03:40:55.829Z,99.90
2023-04-22T03:43:38.878Z,99.90
2023-04-22T03:46:08.700Z,99.90
2023-04-22T03:48:40.061Z,99.90
2023-04-22T03:51:12.901Z,99.90
2023-04-22T03:53:41.349Z,99.90
2023-04-22T03:56:11.190Z,99.90
2023-04-22T03:58:43.626Z,99.90
2023-04-22T04:01:11.491Z,99.90
2023-04-22T04:03:39.875Z,99.90
2023-04-22T04:06:09.482Z,99.90
2023-04-22T04:08:37.352Z,99.90
2023-04-22T04:11:04.850Z,99.90
2023-04-22T04:13:32.185Z,99.90
2023-04-22T04:16:31.795Z,99.90
2023-04-22T04:19:08.049Z,99.90
2023-04-22T04:21:37.668Z,99.90
2023-04-22T04:24:07.231Z,99.90
2023-04-22T04:26:39.420Z,99.90
2023-04-22T04:29:14.671Z,99.90
2023-04-22T04:31:46.741Z,99.90
2023-04-22T04:34:15.231Z,99.90
2023-04-22T04:36:42.190Z,99.90
2023-04-22T04:39:17.526Z,99.90
2023-04-22T04:41:45.211Z,99.90
2023-04-22T04:44:12.426Z,99.90
2023-04-22T04:46:40.641Z,99.90
2023-04-22T04:49:12.865Z,99.90
2023-04-22T04:51:56.073Z,99.90
2023-04-22T04:54:23.595Z,99.90
2023-04-22T04:56:50.562Z,99.90
2023-04-22T04:59:17.625Z,99.90
2023-04-22T05:01:45.725Z,99.90
2023-04-22T05:04:13.708Z,99.90
2023-04-22T05:06:43.336Z,99.90
2023-04-22T05:09:10.489Z,99.90
2023-04-22T05:11:37.739Z,99.90
2023-04-22T05:14:11.841Z,99.90
2023-04-22T05:16:41.897Z,99.90
2023-04-22T05:19:10.065Z,99.90
2023-04-22T05:21:37.539Z,99.90
2023-04-22T05:24:04.786Z,99.90
2023-04-22T05:26:32.399Z,99.90
2023-04-22T05:29:00.821Z,99.90
2023-04-22T05:31:29.106Z,99.90
2023-04-22T05:33:56.977Z,99.90
2023-04-22T05:36:24.361Z,99.90
2023-04-22T05:38:52.086Z,99.90
2023-04-22T05:41:19.521Z,99.90
2023-04-22T05:43:48.776Z,99.90
2023-04-22T05:46:18.290Z,99.90
2023-04-22T05:48:46.812Z,99.90
2023-04-22T05:51:40.203Z,99.90
2023-04-22T05:54:07.253Z,99.90
2023-04-22T05:56:34.599Z,99.90
2023-04-22T05:59:01.814Z,99.90
2023-04-22T06:01:28.743Z,99.90
2023-04-22T06:04:02.906Z,99.90
2023-04-22T06:06:32.134Z,99.90
2023-04-22T06:08:59.061Z,99.90
2023-04-22T06:11:26.068Z,99.90
2023-04-22T06:13:53.054Z,99.90
2023-04-22T06:16:20.319Z,99.90
2023-04-22T06:18:48.552Z,99.90
2023-04-22T06:21:15.653Z,99.90
2023-04-22T06:23:43.489Z,99.90
2023-04-22T06:26:10.926Z,99.90
2023-04-22T06:28:38.310Z,99.90
2023-04-22T06:31:11.140Z,99.90
2023-04-22T06:33:38.693Z,99.90
2023-04-22T06:36:06.776Z,99.90
2023-04-22T06:38:35.549Z,99.90
2023-04-22T06:41:35.050Z,99.90
2023-04-22T06:44:16.770Z,99.90
2023-04-22T06:47:09.867Z,99.90
2023-04-22T06:49:51.617Z,99.90
2023-04-22T06:52:25.158Z,99.90
2023-04-22T06:54:55.184Z,99.90
2023-04-22T06:57:22.311Z,99.90
2023-04-22T06:59:49.248Z,99.90
2023-04-22T07:02:17.089Z,99.90
2023-04-22T07:04:44.652Z,99.90
2023-04-22T07:07:11.909Z,99.90
2023-04-22T07:09:39.736Z,99.90
2023-04-22T07:12:07.078Z,99.90
2023-04-22T07:14:34.069Z,99.90
2023-04-22T07:17:01.274Z,99.90
2023-04-22T07:19:28.272Z,99.90
2023-04-22T07:21:55.236Z,99.90
2023-04-22T07:24:22.161Z,99.90
2023-04-22T07:26:49.127Z,99.90
2023-04-22T07:29:16.214Z,99.90
2023-04-22T07:31:43.245Z,99.90
2023-04-22T07:34:10.817Z,99.90
2023-04-22T07:36:38.726Z,99.90
2023-04-22T07:39:05.713Z,99.90
2023-04-22T07:41:33.566Z,99.90
2023-04-22T07:44:00.656Z,99.90
2023-04-22T07:46:27.658Z,99.90
2023-04-22T07:48:54.608Z,99.90
2023-04-22T07:51:21.807Z,99.90
2023-04-22T07:53:48.642Z,99.90
2023-04-22T07:56:15.577Z,99.90
2023-04-22T07:58:42.549Z,99.90
2023-04-22T08:01:09.558Z,99.90
2023-04-22T08:03:36.666Z,99.90
2023-04-22T08:06:04.063Z,99.90
2023-04-22T08:08:30.936Z,99.90
2023-04-22T08:10:58.030Z,99.90
2023-04-22T08:13:25.453Z,99.90
2023-04-22T08:15:52.438Z,99.90
2023-04-22T08:18:19.494Z,99.90
2023-04-22T08:20:47.911Z,99.90
2023-04-22T08:23:14.779Z,99.90
2023-04-22T08:25:42.124Z,99.90
2023-04-22T08:28:09.241Z,99.90
2023-04-22T08:30:36.342Z,99.90
2023-04-22T08:33:03.442Z,99.90
2023-04-22T08:35:30.894Z,99.90
2023-04-22T08:37:57.969Z,99.90
2023-04-22T08:40:24.959Z,99.90
2023-04-22T08:42:52.904Z,99.90
2023-04-22T08:45:21.357Z,99.90
2023-04-22T08:47:49.928Z,99.90
2023-04-22T08:50:16.916Z,99.90
2023-04-22T08:52:44.050Z,99.90
2023-04-22T08:55:11.049Z,99.90
2023-04-22T08:57:41.158Z,99.90
2023-04-22T09:00:09.541Z,99.90
2023-04-22T09:02:41.965Z,99.90
2023-04-22T09:05:11.229Z,99.90
2023-04-22T09:07:40.089Z,99.90
2023-04-22T09:10:08.441Z,99.90
2023-04-22T09:12:35.484Z,99.90
2023-04-22T09:15:03.692Z,99.90
2023-04-22T09:17:33.428Z,99.90
2023-04-22T09:20:04.909Z,99.90
2023-04-22T09:22:47.913Z,99.90
2023-04-22T09:25:24.313Z,99.90
2023-04-22T09:28:00.927Z,99.90
2023-04-22T09:30:34.657Z,99.90
2023-04-22T09:33:05.577Z,99.90
2023-04-22T09:35:38.193Z,99.90
2023-04-22T09:38:09.519Z,99.90
2023-04-22T09:40:41.453Z,99.90
2023-04-22T09:43:09.534Z,99.90
2023-04-22T09:45:41.510Z,99.90
2023-04-22T09:48:17.575Z,99.90
2023-04-22T09:50:48.129Z,99.90
2023-04-22T09:53:19.018Z,99.90
2023-04-22T09:55:49.697Z,99.90
2023-04-22T09:58:19.121Z,99.90
2023-04-22T10:00:53.111Z,99.80
2023-04-22T10:03:20.425Z,99.50
2023-04-22T10:05:48.919Z,99.40
2023-04-22T10:08:17.334Z,99.20
2023-04-22T10:10:46.261Z,98.90
2023-04-22T10:13:13.442Z,98.40
2023-04-22T10:15:50.411Z,98.10
2023-04-22T10:18:25.860Z,98.10
2023-04-22T10:20:56.704Z,98.20
2023-04-22T10:23:25.334Z,98.30
2023-04-22T10:25:56.623Z,98.30
2023-04-22T10:28:28.643Z,98.00
2023-04-22T10:30:55.715Z,97.50
2023-04-22T10:33:29.008Z,97.00
2023-04-22T10:36:19.451Z,97.00
2023-04-22T10:38:55.743Z,95.80
2023-04-22T10:41:29.101Z,95.90
2023-04-22T10:43:59.651Z,96.00
2023-04-22T10:46:37.435Z,95.90
2023-04-22T10:49:20.605Z,95.10
2023-04-22T10:51:54.275Z,95.20
2023-04-22T10:54:32.530Z,95.10
2023-04-22T10:57:12.075Z,94.60
2023-04-22T10:59:54.488Z,94.70
2023-04-22T11:02:23.617Z,94.80
2023-04-22T11:04:54.786Z,95.10
2023-04-22T11:07:27.831Z,95.20
2023-04-22T11:10:15.637Z,95.30
2023-04-22T11:12:44.896Z,95.80
2023-04-22T11:15:16.775Z,96.00
2023-04-22T11:17:53.470Z,96.50
2023-04-22T11:20:21.686Z,96.60
2023-04-22T11:22:55.136Z,97.60
2023-04-22T11:25:25.031Z,97.50
2023-04-22T11:27:54.624Z,98.00
2023-04-22T11:30:26.874Z,98.40
2023-04-22T11:32:59.960Z,98.50
2023-04-22T11:35:32.113Z,99.10
2023-04-22T11:38:01.643Z,99.00
2023-04-22T11:40:43.953Z,99.30
2023-04-22T11:43:13.373Z,99.50
2023-04-22T11:45:40.682Z,99.70
2023-04-22T11:48:10.098Z,99.90
2023-04-22T11:50:40.629Z,99.90
2023-04-22T11:53:23.713Z,99.90
2023-04-22T11:55:52.024Z,99.90
2023-04-22T11:58:25.636Z,99.90
2023-04-22T12:00:55.158Z,99.90
2023-04-22T12:03:25.907Z,99.90
2023-04-22T12:06:02.190Z,99.90
2023-04-22T12:08:33.388Z,99.90
2023-04-22T12:11:03.879Z,99.90
2023-04-22T12:13:51.202Z,99.90
2023-04-22T12:16:20.413Z,99.90
2023-04-22T12:18:56.750Z,99.90
2023-04-22T12:21:28.482Z,99.90
2023-04-22T12:24:01.383Z,99.90
2023-04-22T12:26:28.366Z,99.90
2023-04-22T12:28:58.212Z,99.90
2023-04-22T12:31:26.054Z,99.90
2023-04-22T12:33:54.153Z,99.90
2023-04-22T12:36:21.824Z,99.80
2023-04-22T12:38:49.514Z,99.40
2023-04-22T12:41:17.136Z,99.40
2023-04-22T12:43:44.361Z,99.40
2023-04-22T12:46:11.525Z,99.60
2023-04-22T12:48:38.490Z,99.80
2023-04-22T12:51:06.869Z,99.90
2023-04-22T12:53:34.064Z,99.90
2023-04-22T12:56:02.274Z,99.90
2023-04-22T12:58:31.654Z,99.90
2023-04-22T13:00:58.569Z,99.90
2023-04-22T13:03:25.656Z,99.90
2023-04-22T13:05:53.071Z,99.90
2023-04-22T13:08:20.406Z,99.90
2023-04-22T13:10:48.959Z,99.90
2023-04-22T13:13:18.844Z,99.90
2023-04-22T13:15:48.050Z,99.90
2023-04-22T13:18:16.711Z,99.90
2023-04-22T13:20:43.902Z,99.90
2023-04-22T13:23:11.435Z,99.90
2023-04-22T13:25:38.600Z,99.90
2023-04-22T13:28:05.833Z,99.90
2023-04-22T13:30:33.248Z,99.90
2023-04-22T13:33:00.345Z,99.90
2023-04-22T13:35:27.544Z,99.90
2023-04-22T13:37:54.656Z,99.90
2023-04-22T13:40:21.874Z,99.90
2023-04-22T13:42:48.902Z,99.90
2023-04-22T13:45:16.759Z,99.90
2023-04-22T13:47:43.780Z,99.90
2023-04-22T13:50:11.260Z,99.90
2023-04-22T13:52:38.448Z,99.90
2023-04-22T13:55:06.855Z,99.90
2023-04-22T13:57:33.801Z,99.90
2023-04-22T14:00:00.748Z,99.90
2023-04-22T14:02:28.028Z,99.90
2023-04-22T14:04:55.225Z,99.90
2023-04-22T14:07:22.224Z,99.90
2023-04-22T14:09:49.296Z,99.90
2023-04-22T14:12:16.641Z,99.90
2023-04-22T14:14:43.814Z,99.90
2023-04-22T14:17:11.413Z,99.90
2023-04-22T14:19:39.832Z,99.90
2023-04-22T14:22:07.073Z,99.90
2023-04-22T14:24:34.489Z,99.90
2023-04-22T14:27:05.315Z,99.90
2023-04-22T14:29:32.640Z,99.90
2023-04-22T14:31:59.647Z,99.90
2023-04-22T14:34:27.377Z,99.90
2023-04-22T14:36:54.625Z,99.90
2023-04-22T14:39:21.928Z,99.90
2023-04-22T14:41:49.235Z,99.90
2023-04-22T14:44:16.602Z,99.90
2023-04-22T14:46:43.745Z,99.90
2023-04-22T14:49:10.827Z,99.90
2023-04-22T14:51:37.796Z,99.90
2023-04-22T14:54:05.495Z,99.90
2023-04-22T14:56:32.411Z,99.90
2023-04-22T14:58:59.375Z,99.90
2023-04-22T15:01:26.357Z,99.90
2023-04-22T15:03:53.569Z,99.90
2023-04-22T15:06:23.019Z,99.90
2023-04-22T15:08:54.160Z,99.90
2023-04-22T15:11:21.298Z,99.90
2023-04-22T15:13:48.531Z,99.90
2023-04-22T15:16:15.707Z,99.90
2023-04-22T15:18:43.147Z,99.90
2023-04-22T15:21:10.775Z,99.90
2023-04-22T15:23:37.894Z,99.90
2023-04-22T15:26:05.208Z,99.90
2023-04-22T15:28:33.501Z,99.90
2023-04-22T15:31:01.893Z,99.90
2023-04-22T15:33:29.098Z,99.90
2023-04-22T15:35:56.116Z,99.90
2023-04-22T15:38:24.722Z,99.90
2023-04-22T15:40:51.790Z,99.90
2023-04-22T15:43:18.677Z,99.90
2023-04-22T15:45:45.662Z,99.90
2023-04-22T15:48:12.572Z,99.90
2023-04-22T15:50:40.745Z,99.90
2023-04-22T15:53:07.731Z,99.90
2023-04-22T15:55:34.707Z,99.90
2023-04-22T15:58:02.541Z,99.90
2023-04-22T16:00:29.437Z,99.90
2023-04-22T16:02:56.784Z,99.90
2023-04-22T16:05:25.222Z,99.90
2023-04-22T16:07:56.292Z,99.90
2023-04-22T16:10:26.199Z,99.90
2023-04-22T16:12:53.282Z,99.90
2023-04-22T16:15:20.229Z,99.90
2023-04-22T16:17:47.240Z,99.90
2023-04-22T16:20:14.151Z,99.90
2023-04-22T16:22:41.130Z,99.90
2023-04-22T16:25:09.477Z,99.90
2023-04-22T16:27:37.263Z,99.90
2023-04-22T16:30:06.114Z,99.90
2023-04-22T16:32:33.192Z,99.90
2023-04-22T16:35:01.449Z,99.90
2023-04-22T16:37:29.500Z,99.90
2023-04-22T16:39:56.750Z,99.90
2023-04-22T16:42:23.774Z,99.90
2023-04-22T16:44:51.435Z,99.90
2023-04-22T16:47:19.104Z,99.90
2023-04-22T16:49:46.952Z,99.90
2023-04-22T16:52:14.023Z,99.90
2023-04-22T16:54:42.519Z,99.90
2023-04-22T16:57:11.384Z,99.90
2023-04-22T16:59:39.208Z,99.90
2023-04-22T17:02:06.368Z,99.90
2023-04-22T17:04:33.340Z,99.90
2023-04-22T17:07:00.246Z,99.90
2023-04-22T17:09:27.167Z,99.90
2023-04-22T17:11:54.164Z,99.90
2023-04-22T17:14:21.218Z,99.90
2023-04-22T17:16:48.231Z,99.90
2023-04-22T17:19:15.112Z,99.90
2023-04-22T17:21:42.674Z,99.90
2023-04-22T17:24:09.687Z,99.90
2023-04-22T17:26:37.086Z,99.90
2023-04-22T17:29:03.963Z,99.90
2023-04-22T17:31:31.060Z,99.90
2023-04-22T17:33:58.293Z,99.90
2023-04-22T17:36:25.348Z,99.90
2023-04-22T17:38:52.314Z,99.90
2023-04-22T17:41:19.311Z,99.90
2023-04-22T17:43:46.503Z,99.90
2023-04-22T17:46:13.498Z,99.90
2023-04-22T17:48:41.905Z,99.90
2023-04-22T17:51:09.927Z,99.90
2023-04-22T17:53:37.497Z,99.90
2023-04-22T17:56:04.659Z,99.90
2023-04-22T17:58:31.738Z,99.90
2023-04-22T18:00:58.695Z,99.90
2023-04-22T18:03:26.368Z,99.90
2023-04-22T18:05:53.494Z,99.90
2023-04-22T18:08:20.523Z,99.90
2023-04-22T18:10:47.529Z,99.90
2023-04-22T18:13:14.521Z,99.90
2023-04-22T18:15:42.426Z,99.90
2023-04-22T18:18:09.313Z,99.90
2023-04-22T18:20:36.380Z,99.90
2023-04-22T18:23:03.400Z,99.90
2023-04-22T18:25:30.428Z,99.90
2023-04-22T18:27:57.342Z,99.90
2023-04-22T18:30:25.095Z,99.90
2023-04-22T18:32:52.537Z,99.90
2023-04-22T18:35:20.140Z,99.90
2023-04-22T18:37:47.674Z,99.90
2023-04-22T18:40:14.772Z,99.90
2023-04-22T18:42:44.721Z,99.90
2023-04-22T18:45:12.343Z,99.90
2023-04-22T18:47:39.666Z,99.90
2023-04-22T18:50:07.853Z,99.90
2023-04-22T18:52:35.068Z,99.90
2023-04-22T18:55:02.264Z,99.90
2023-04-22T18:57:29.365Z,99.90
2023-04-22T18:59:56.449Z,99.90
2023-04-22T19:02:23.503Z,99.90
2023-04-22T19:04:51.634Z,99.90
2023-04-22T19:07:18.563Z,99.90
2023-04-22T19:09:45.693Z,99.90
2023-04-22T19:12:16.424Z,99.90
2023-04-22T19:14:43.764Z,99.90
2023-04-22T19:17:11.030Z,99.90
2023-04-22T19:19:38.106Z,99.90
2023-04-22T19:22:05.609Z,99.90
2023-04-22T19:24:35.150Z,99.90
2023-04-22T19:27:02.846Z,99.90
2023-04-22T19:29:30.064Z,99.90
2023-04-22T19:31:57.355Z,99.90
2023-04-22T19:34:24.470Z,99.90
2023-04-22T19:36:51.461Z,99.90
2023-04-22T19:39:18.412Z,99.90
2023-04-22T19:41:59.078Z,99.90
2023-04-22T19:44:26.039Z,99.90
2023-04-22T19:46:53.173Z,99.90
2023-04-22T19:49:20.712Z,99.90
2023-04-22T19:51:48.199Z,99.90
2023-04-22T19:54:16.806Z,99.90
2023-04-22T19:56:45.203Z,99.90
2023-04-22T19:59:13.463Z,99.90
2023-04-22T20:01:40.756Z,99.90
2023-04-22T20:04:08.565Z,99.90
2023-04-22T20:06:36.587Z,99.90
2023-04-22T20:09:05.714Z,99.90
2023-04-22T20:11:34.560Z,99.90
2023-04-22T20:14:03.621Z,99.90
2023-04-22T20:16:31.105Z,99.90
2023-04-22T20:18:58.141Z,99.90
2023-04-22T20:21:25.767Z,99.90
2023-04-22T20:23:57.193Z,99.90
2023-04-22T20:26:24.504Z,99.90
2023-04-22T20:28:54.771Z,99.90
2023-04-22T20:31:23.447Z,99.90
2023-04-22T20:33:51.211Z,99.90
2023-04-22T20:36:24.072Z,99.90
2023-04-22T20:38:54.885Z,99.90
2023-04-22T20:41:24.639Z,99.90
2023-04-22T20:43:52.653Z,99.90
2023-04-22T20:46:22.252Z,99.90
2023-04-22T20:48:49.986Z,99.90
2023-04-22T20:51:16.883Z,99.90
2023-04-22T20:53:45.400Z,99.90
2023-04-22T20:56:13.209Z,99.90
2023-04-22T20:58:40.198Z,99.90
2023-04-22T21:01:08.989Z,99.90
2023-04-22T21:03:39.646Z,99.90
2023-04-22T21:06:08.731Z,99.90
2023-04-22T21:08:36.799Z,99.90
2023-04-22T21:11:04.146Z,99.90
2023-04-22T21:13:31.446Z,99.90
2023-04-22T21:16:05.410Z,99.90
2023-04-22T21:18:34.686Z,99.90
2023-04-22T21:21:07.311Z,99.90
2023-04-22T21:23:35.924Z,99.90
2023-04-22T21:26:03.612Z,99.90
2023-04-22T21:28:31.412Z,99.90
2023-04-22T21:30:59.045Z,99.90
2023-04-22T21:33:26.179Z,99.90
2023-04-22T21:35:53.274Z,99.90
2023-04-22T21:38:20.720Z,99.90
2023-04-22T21:40:47.754Z,99.90
2023-04-22T21:43:14.767Z,99.90
2023-04-22T21:45:41.607Z,99.90
2023-04-22T21:48:08.725Z,99.90
2023-04-22T21:50:35.985Z,99.90
2023-04-22T21:53:03.318Z,99.90
2023-04-22T21:55:30.301Z,99.90
2023-04-22T21:57:57.364Z,99.90
2023-04-22T22:00:25.069Z,99.90
2023-04-22T22:02:53.128Z,99.90
2023-04-22T22:05:20.555Z,99.90
2023-04-22T22:07:48.828Z,99.90
2023-04-22T22:10:22.537Z,99.90
2023-04-22T22:12:50.467Z,99.90
2023-04-22T22:15:17.820Z,99.90
2023-04-22T22:17:45.746Z,99.90
2023-04-22T22:20:20.099Z,99.90
2023-04-22T22:22:48.612Z,99.90
2023-04-22T22:25:16.645Z,99.90
2023-04-22T22:27:49.396Z,99.90
2023-04-22T22:30:21.067Z,99.90
2023-04-22T22:32:48.831Z,99.90
2023-04-22T22:35:16.317Z,99.90
2023-04-22T22:37:44.607Z,99.90
2023-04-22T22:40:12.354Z,99.90
2023-04-22T22:42:39.380Z,99.90
2023-04-22T22:45:07.079Z,99.90
2023-04-22T22:47:34.407Z,99.90
2023-04-22T22:50:01.381Z,99.90
2023-04-22T22:52:28.537Z,99.90
2023-04-22T22:54:56.567Z,99.90
2023-04-22T22:57:23.578Z,99.90
2023-04-22T22:59:50.624Z,99.90
2023-04-22T23:02:17.982Z,99.90
2023-04-22T23:04:45.564Z,99.90
2023-04-22T23:07:14.597Z,99.90
2023-04-22T23:09:41.611Z,99.90
2023-04-22T23:12:08.533Z,99.90
2023-04-22T23:14:36.517Z,99.90
2023-04-22T23:17:03.718Z,99.90
2023-04-22T23:19:32.614Z,99.90
2023-04-22T23:21:59.839Z,99.90
2023-04-22T23:24:27.273Z,99.90
2023-04-22T23:26:54.661Z,99.90
2023-04-22T23:29:22.159Z,99.90
2023-04-22T23:31:51.953Z,99.90
2023-04-22T23:34:25.873Z,99.90
2023-04-22T23:36:53.618Z,99.90
2023-04-22T23:39:20.608Z,99.90
2023-04-22T23:41:47.604Z,99.90
2023-04-22T23:44:14.498Z,99.90
2023-04-22T23:46:41.732Z,99.90
2023-04-22T23:49:08.698Z,99.90
2023-04-22T23:51:35.782Z,99.90
2023-04-22T23:54:02.624Z,99.90
2023-04-22T23:56:29.896Z,99.90
2023-04-22T23:58:57.359Z,99.90
